Aurora, CO (80010)

10:24 AM MDT on March 27, 2015 (GMT -0600)
North Aurora / Fitzsimmons | | Change Station
CLOSE
Current Station
Personal Weather Station
Location: Aurora, CO
Elevation: 5364 ft
Nearby Weather Stations

Elev 5364 ft 39.75 °N, 104.85 °W | Updated 4 seconds ago

Partly Cloudy
Partly Cloudy
61.0 °F
Feels Like 61.0 °F
N
0.0
Wind Variable Wind from North
Gusts 0.0 mph

Today
High -- | Low -- °F
--% Chance of Precip.
Yesterday
High -- | Low -- °F
Precip. -- in
6:51 AM 7:18 PM
First Quarter, 54% visible
Pressure 30.09 in
Visibility 10.0 miles
Clouds Few 8000 ft
Scattered Clouds 11000 ft
Mostly Cloudy 22000 ft
Dew Point 32 °F
Humidity 33%
Rainfall 0.00 in
Snow Depth Not available.
UV 2 out of 12
Pollen 10.60 out of 12
Air Quality Not available.
Flu Activity Not available.
METAR KBKF 271558Z VRB02KT 10SM FEW080 SCT110 BKN220 13/M02 A3021 RMK AO2A SLP189 T01311018

More Conditions Fewer Conditions

Pressure 30.09 in
Visibility 10.0 miles
Clouds Few 8000 ft
Scattered Clouds 11000 ft
Mostly Cloudy 22000 ft
Dew Point 32 °F
Humidity 33%
Rainfall 0.00 in
Snow Depth Not available.
UV 2 out of 12
Pollen 10.60 out of 12
Air Quality Not available.
Flu Activity Not available.
METAR KBKF 271558Z VRB02KT 10SM FEW080 SCT110 BKN220 13/M02 A3021 RMK AO2A SLP189 T01311018

More Conditions Fewer Conditions

10-Day Weather Forecast

Almanac

Astronomy

Mar. 27, 2015 Rise Set
Actual Time
Civil Twilight
Nautical Twilight
Astronomical Twilight
Moon
Length of Visible Light
Length of Day
Tomorrow will be .
, % of the Moon is Illuminated

Today's Extremes

State Highs State Lows

Community

WunderPhotos

Upload Photos

1,808,770 photos uploaded!

WunderBlogs® & News

Nearby

Air Quality

  Air Quality AQ Index Pollutant
Not available.

Snow Depth

Station Depth Elevation

Earthquake Activity

City Distance Mag. Time & Date
Minimum magnitude displayed is 2.5.

Coastal Water Temperatures

Place Temperature

Stations

Nearby Weather Stations

Station Location Temp. Windchill Dew Point Humidity Wind Precip. Elev Updated Type